Excello, Missouri
Current Conditions -  °F | °C
As of 9:25 AM on Monday 22 Dec 2014 (Local Time) from KIRK Reporting Station
Light Rain Light Rain  
Wind Chill: 32°   Ceiling: 900
Heat Index: 39°   Visibility: 4mi
Dew Point: 38°   Wind: 10mph
Humidity: 96%   Direction: 130°SE
Pressure: 29.65"   Gusts: NA
Location:  39.64°N, 92.48°W
Report Text: KIRK 221525Z AUTO 13009KT 4SM -RA BR OVC009 04/03 A2965 RMK AO2 RAB10 CIG 007V014 P0001 T00390033
Loading
Personal Weather Stations






























Interactive Weather Map New forecast layout! Learn more

10-Day Weather Forecast

Advertisements
Track Severe Weather on mobile